sensor_id;sensor_type;location;lat;lon;timestamp;P1;durP1;ratioP1;P2;durP2;ratioP2
23302;SDS011;11820;48.738;9.092;2023-04-03T00:01:25;2.97;;;2.53;;
23302;SDS011;11820;48.738;9.092;2023-04-03T00:03:50;3.07;;;2.33;;
23302;SDS011;11820;48.738;9.092;2023-04-03T00:06:16;2.73;;;2.53;;
23302;SDS011;11820;48.738;9.092;2023-04-03T00:08:42;2.90;;;2.67;;
23302;SDS011;11820;48.738;9.092;2023-04-03T00:11:08;3.83;;;2.50;;
23302;SDS011;11820;48.738;9.092;2023-04-03T00:13:33;2.83;;;2.57;;
23302;SDS011;11820;48.738;9.092;2023-04-03T00:15:59;3.57;;;2.70;;
23302;SDS011;11820;48.738;9.092;2023-04-03T00:18:25;3.20;;;2.43;;
23302;SDS011;11820;48.738;9.092;2023-04-03T00:20:50;3.70;;;2.57;;
23302;SDS011;11820;48.738;9.092;2023-04-03T00:23:16;3.00;;;2.63;;
23302;SDS011;11820;48.738;9.092;2023-04-03T00:25:41;3.00;;;2.60;;
23302;SDS011;11820;48.738;9.092;2023-04-03T00:28:07;2.73;;;2.53;;
23302;SDS011;11820;48.738;9.092;2023-04-03T00:30:33;3.80;;;2.53;;
23302;SDS011;11820;48.738;9.092;2023-04-03T00:32:59;3.93;;;2.37;;
23302;SDS011;11820;48.738;9.092;2023-04-03T00:35:25;3.00;;;2.53;;
23302;SDS011;11820;48.738;9.092;2023-04-03T00:37:51;3.47;;;2.67;;
23302;SDS011;11820;48.738;9.092;2023-04-03T00:40:18;3.80;;;2.60;;
23302;SDS011;11820;48.738;9.092;2023-04-03T00:42:44;3.57;;;2.40;;
23302;SDS011;11820;48.738;9.092;2023-04-03T00:45:22;2.93;;;2.40;;
23302;SDS011;11820;48.738;9.092;2023-04-03T00:47:48;4.00;;;2.83;;
23302;SDS011;11820;48.738;9.092;2023-04-03T00:50:13;2.73;;;2.23;;
23302;SDS011;11820;48.738;9.092;2023-04-03T00:52:39;2.93;;;2.43;;
23302;SDS011;11820;48.738;9.092;2023-04-03T00:55:05;3.37;;;2.40;;
23302;SDS011;11820;48.738;9.092;2023-04-03T00:57:33;2.80;;;2.40;;
23302;SDS011;11820;48.738;9.092;2023-04-03T01:00:03;3.20;;;2.90;;
23302;SDS011;11820;48.738;9.092;2023-04-03T01:02:33;4.97;;;2.70;;
23302;SDS011;11820;48.738;9.092;2023-04-03T01:04:59;3.23;;;2.97;;
23302;SDS011;11820;48.738;9.092;2023-04-03T01:07:29;4.63;;;2.70;;
23302;SDS011;11820;48.738;9.092;2023-04-03T01:09:57;2.83;;;2.30;;
23302;SDS011;11820;48.738;9.092;2023-04-03T01:12:32;3.87;;;2.70;;
23302;SDS011;11820;48.738;9.092;2023-04-03T01:15:44;4.60;;;2.90;;
23302;SDS011;11820;48.738;9.092;2023-04-03T01:17:52;2.77;;;2.53;;
23302;SDS011;11820;48.738;9.092;2023-04-03T01:28:07;5.13;;;2.70;;
23302;SDS011;11820;48.738;9.092;2023-04-03T01:30:37;4.60;;;2.77;;
23302;SDS011;11820;48.738;9.092;2023-04-03T01:33:09;4.87;;;2.70;;
23302;SDS011;11820;48.738;9.092;2023-04-03T01:35:34;4.33;;;2.67;;
23302;SDS011;11820;48.738;9.092;2023-04-03T01:38:00;2.60;;;2.40;;
23302;SDS011;11820;48.738;9.092;2023-04-03T01:40:25;2.70;;;2.50;;
23302;SDS011;11820;48.738;9.092;2023-04-03T01:42:51;3.00;;;2.63;;
23302;SDS011;11820;48.738;9.092;2023-04-03T01:45:16;3.33;;;3.00;;
23302;SDS011;11820;48.738;9.092;2023-04-03T01:47:41;3.23;;;2.93;;
23302;SDS011;11820;48.738;9.092;2023-04-03T01:50:07;4.50;;;2.53;;
23302;SDS011;11820;48.738;9.092;2023-04-03T01:52:32;3.27;;;2.67;;
23302;SDS011;11820;48.738;9.092;2023-04-03T01:54:57;3.20;;;2.70;;
23302;SDS011;11820;48.738;9.092;2023-04-03T01:57:23;2.53;;;2.30;;
23302;SDS011;11820;48.738;9.092;2023-04-03T01:59:48;3.37;;;2.40;;
23302;SDS011;11820;48.738;9.092;2023-04-03T02:02:13;3.77;;;2.63;;
23302;SDS011;11820;48.738;9.092;2023-04-03T02:04:39;3.23;;;2.50;;
23302;SDS011;11820;48.738;9.092;2023-04-03T02:07:05;3.77;;;2.93;;
23302;SDS011;11820;48.738;9.092;2023-04-03T02:09:30;3.90;;;2.80;;
23302;SDS011;11820;48.738;9.092;2023-04-03T02:11:56;4.63;;;3.17;;
23302;SDS011;11820;48.738;9.092;2023-04-03T02:14:21;3.67;;;3.13;;
23302;SDS011;11820;48.738;9.092;2023-04-03T02:16:48;3.77;;;2.67;;
23302;SDS011;11820;48.738;9.092;2023-04-03T02:19:14;4.60;;;2.53;;
23302;SDS011;11820;48.738;9.092;2023-04-03T02:21:39;2.93;;;2.30;;
23302;SDS011;11820;48.738;9.092;2023-04-03T02:24:04;3.57;;;2.83;;
23302;SDS011;11820;48.738;9.092;2023-04-03T02:26:30;4.83;;;2.63;;
23302;SDS011;11820;48.738;9.092;2023-04-03T02:28:55;2.80;;;2.40;;
23302;SDS011;11820;48.738;9.092;2023-04-03T02:31:21;3.10;;;2.80;;
23302;SDS011;11820;48.738;9.092;2023-04-03T02:33:46;3.50;;;2.60;;
23302;SDS011;11820;48.738;9.092;2023-04-03T02:36:11;4.07;;;2.40;;
23302;SDS011;11820;48.738;9.092;2023-04-03T02:38:37;4.27;;;2.77;;
23302;SDS011;11820;48.738;9.092;2023-04-03T02:41:03;3.67;;;2.70;;
23302;SDS011;11820;48.738;9.092;2023-04-03T02:43:30;2.93;;;2.47;;
23302;SDS011;11820;48.738;9.092;2023-04-03T02:45:56;4.07;;;3.10;;
23302;SDS011;11820;48.738;9.092;2023-04-03T02:48:21;4.63;;;3.00;;
23302;SDS011;11820;48.738;9.092;2023-04-03T02:50:47;4.03;;;2.77;;
23302;SDS011;11820;48.738;9.092;2023-04-03T02:53:13;5.43;;;2.87;;
23302;SDS011;11820;48.738;9.092;2023-04-03T02:55:40;3.33;;;2.63;;
23302;SDS011;11820;48.738;9.092;2023-04-03T02:58:05;3.70;;;2.93;;
23302;SDS011;11820;48.738;9.092;2023-04-03T03:00:31;4.23;;;2.70;;
23302;SDS011;11820;48.738;9.092;2023-04-03T03:02:56;3.60;;;2.90;;
23302;SDS011;11820;48.738;9.092;2023-04-03T03:05:21;3.30;;;2.13;;
23302;SDS011;11820;48.738;9.092;2023-04-03T03:07:47;4.30;;;2.57;;
23302;SDS011;11820;48.738;9.092;2023-04-03T03:10:12;2.83;;;2.50;;
23302;SDS011;11820;48.738;9.092;2023-04-03T03:12:38;4.57;;;2.73;;
23302;SDS011;11820;48.738;9.092;2023-04-03T03:15:03;3.13;;;2.40;;
23302;SDS011;11820;48.738;9.092;2023-04-03T03:17:29;2.60;;;2.40;;
23302;SDS011;11820;48.738;9.092;2023-04-03T03:19:55;5.17;;;3.00;;
23302;SDS011;11820;48.738;9.092;2023-04-03T03:22:20;5.77;;;3.17;;
23302;SDS011;11820;48.738;9.092;2023-04-03T03:24:45;2.50;;;2.30;;
23302;SDS011;11820;48.738;9.092;2023-04-03T03:27:10;2.87;;;2.67;;
23302;SDS011;11820;48.738;9.092;2023-04-03T03:29:37;3.43;;;2.47;;
23302;SDS011;11820;48.738;9.092;2023-04-03T03:32:02;3.87;;;2.77;;
23302;SDS011;11820;48.738;9.092;2023-04-03T03:34:27;3.93;;;2.70;;
23302;SDS011;11820;48.738;9.092;2023-04-03T03:36:53;3.33;;;2.67;;
23302;SDS011;11820;48.738;9.092;2023-04-03T03:39:18;3.80;;;2.40;;
23302;SDS011;11820;48.738;9.092;2023-04-03T03:41:43;3.37;;;2.67;;
23302;SDS011;11820;48.738;9.092;2023-04-03T03:44:09;5.03;;;2.87;;
23302;SDS011;11820;48.738;9.092;2023-04-03T03:46:34;2.83;;;2.30;;
23302;SDS011;11820;48.738;9.092;2023-04-03T03:48:59;4.20;;;2.90;;
23302;SDS011;11820;48.738;9.092;2023-04-03T03:51:24;3.97;;;2.60;;
23302;SDS011;11820;48.738;9.092;2023-04-03T03:53:50;3.17;;;2.73;;
23302;SDS011;11820;48.738;9.092;2023-04-03T03:56:15;3.23;;;2.60;;
23302;SDS011;11820;48.738;9.092;2023-04-03T03:58:41;3.50;;;2.70;;
23302;SDS011;11820;48.738;9.092;2023-04-03T04:01:06;3.10;;;2.77;;
23302;SDS011;11820;48.738;9.092;2023-04-03T04:03:32;3.57;;;3.00;;
23302;SDS011;11820;48.738;9.092;2023-04-03T04:05:57;3.40;;;2.63;;
23302;SDS011;11820;48.738;9.092;2023-04-03T04:08:23;3.37;;;2.40;;
23302;SDS011;11820;48.738;9.092;2023-04-03T04:10:48;2.83;;;2.50;;
23302;SDS011;11820;48.738;9.092;2023-04-03T04:13:14;3.40;;;2.60;;
23302;SDS011;11820;48.738;9.092;2023-04-03T04:15:39;2.43;;;2.23;;
23302;SDS011;11820;48.738;9.092;2023-04-03T04:18:05;2.40;;;2.20;;
23302;SDS011;11820;48.738;9.092;2023-04-03T04:20:30;3.20;;;2.90;;
23302;SDS011;11820;48.738;9.092;2023-04-03T04:22:55;4.83;;;2.87;;
23302;SDS011;11820;48.738;9.092;2023-04-03T04:25:21;3.40;;;2.57;;
23302;SDS011;11820;48.738;9.092;2023-04-03T04:27:46;3.37;;;3.07;;
23302;SDS011;11820;48.738;9.092;2023-04-03T04:30:11;5.00;;;3.37;;
23302;SDS011;11820;48.738;9.092;2023-04-03T04:32:37;3.30;;;2.70;;
23302;SDS011;11820;48.738;9.092;2023-04-03T04:35:03;4.23;;;2.60;;
23302;SDS011;11820;48.738;9.092;2023-04-03T04:37:29;3.97;;;2.80;;
23302;SDS011;11820;48.738;9.092;2023-04-03T04:39:54;4.10;;;2.43;;
23302;SDS011;11820;48.738;9.092;2023-04-03T04:42:20;3.57;;;2.40;;
23302;SDS011;11820;48.738;9.092;2023-04-03T04:44:45;2.90;;;2.60;;
23302;SDS011;11820;48.738;9.092;2023-04-03T04:47:10;2.57;;;2.37;;
23302;SDS011;11820;48.738;9.092;2023-04-03T04:49:35;3.10;;;2.53;;
23302;SDS011;11820;48.738;9.092;2023-04-03T04:52:01;3.57;;;2.50;;
23302;SDS011;11820;48.738;9.092;2023-04-03T04:54:26;3.20;;;2.40;;
23302;SDS011;11820;48.738;9.092;2023-04-03T04:56:51;2.80;;;2.50;;
23302;SDS011;11820;48.738;9.092;2023-04-03T04:59:17;3.67;;;2.50;;
23302;SDS011;11820;48.738;9.092;2023-04-03T05:01:42;2.83;;;2.20;;
23302;SDS011;11820;48.738;9.092;2023-04-03T05:04:07;3.87;;;2.43;;
23302;SDS011;11820;48.738;9.092;2023-04-03T05:06:34;3.50;;;2.10;;
23302;SDS011;11820;48.738;9.092;2023-04-03T05:09:00;2.83;;;2.10;;
23302;SDS011;11820;48.738;9.092;2023-04-03T05:11:25;2.33;;;2.00;;
23302;SDS011;11820;48.738;9.092;2023-04-03T05:13:51;2.80;;;2.27;;
23302;SDS011;11820;48.738;9.092;2023-04-03T05:16:16;2.57;;;2.20;;
23302;SDS011;11820;48.738;9.092;2023-04-03T05:18:41;2.50;;;2.10;;
23302;SDS011;11820;48.738;9.092;2023-04-03T05:21:07;2.47;;;2.13;;
23302;SDS011;11820;48.738;9.092;2023-04-03T05:23:32;5.37;;;2.97;;
23302;SDS011;11820;48.738;9.092;2023-04-03T05:25:57;2.97;;;2.10;;
23302;SDS011;11820;48.738;9.092;2023-04-03T05:28:23;8.13;;;4.80;;
23302;SDS011;11820;48.738;9.092;2023-04-03T05:30:54;6.27;;;3.33;;
23302;SDS011;11820;48.738;9.092;2023-04-03T05:33:21;3.00;;;2.20;;
23302;SDS011;11820;48.738;9.092;2023-04-03T05:35:47;2.37;;;2.17;;
23302;SDS011;11820;48.738;9.092;2023-04-03T05:38:12;3.07;;;2.13;;
23302;SDS011;11820;48.738;9.092;2023-04-03T05:40:37;3.97;;;2.57;;
23302;SDS011;11820;48.738;9.092;2023-04-03T05:43:03;3.33;;;2.37;;
23302;SDS011;11820;48.738;9.092;2023-04-03T05:45:28;4.20;;;2.30;;
23302;SDS011;11820;48.738;9.092;2023-04-03T05:47:54;2.53;;;2.33;;
23302;SDS011;11820;48.738;9.092;2023-04-03T05:50:19;4.03;;;2.40;;
23302;SDS011;11820;48.738;9.092;2023-04-03T05:52:45;3.43;;;2.33;;
23302;SDS011;11820;48.738;9.092;2023-04-03T05:55:13;4.17;;;2.67;;
23302;SDS011;11820;48.738;9.092;2023-04-03T05:57:39;2.47;;;2.10;;
23302;SDS011;11820;48.738;9.092;2023-04-03T06:00:06;3.73;;;2.10;;
23302;SDS011;11820;48.738;9.092;2023-04-03T06:02:33;2.93;;;2.57;;
23302;SDS011;11820;48.738;9.092;2023-04-03T06:04:58;3.80;;;2.80;;
23302;SDS011;11820;48.738;9.092;2023-04-03T06:07:24;3.23;;;2.23;;
23302;SDS011;11820;48.738;9.092;2023-04-03T06:09:53;2.43;;;2.23;;
23302;SDS011;11820;48.738;9.092;2023-04-03T06:12:20;3.07;;;2.13;;
23302;SDS011;11820;48.738;9.092;2023-04-03T06:14:46;2.60;;;2.33;;
23302;SDS011;11820;48.738;9.092;2023-04-03T06:17:12;2.73;;;2.20;;
23302;SDS011;11820;48.738;9.092;2023-04-03T06:19:38;3.70;;;2.30;;
23302;SDS011;11820;48.738;9.092;2023-04-03T06:22:04;4.77;;;2.67;;
23302;SDS011;11820;48.738;9.092;2023-04-03T06:24:29;2.57;;;2.27;;
23302;SDS011;11820;48.738;9.092;2023-04-03T06:26:55;2.60;;;2.40;;
23302;SDS011;11820;48.738;9.092;2023-04-03T06:29:21;3.07;;;2.23;;
23302;SDS011;11820;48.738;9.092;2023-04-03T06:31:47;9.43;;;2.57;;
23302;SDS011;11820;48.738;9.092;2023-04-03T06:34:12;2.50;;;2.27;;
23302;SDS011;11820;48.738;9.092;2023-04-03T06:36:38;2.13;;;1.90;;
23302;SDS011;11820;48.738;9.092;2023-04-03T06:39:04;4.03;;;2.00;;
23302;SDS011;11820;48.738;9.092;2023-04-03T06:41:30;2.33;;;2.10;;
23302;SDS011;11820;48.738;9.092;2023-04-03T06:43:56;2.70;;;2.30;;
23302;SDS011;11820;48.738;9.092;2023-04-03T06:46:23;2.83;;;2.00;;
23302;SDS011;11820;48.738;9.092;2023-04-03T06:48:49;2.33;;;2.00;;
23302;SDS011;11820;48.738;9.092;2023-04-03T06:51:22;2.93;;;2.00;;
23302;SDS011;11820;48.738;9.092;2023-04-03T06:53:53;2.70;;;2.30;;
23302;SDS011;11820;48.738;9.092;2023-04-03T06:56:20;3.00;;;2.27;;
23302;SDS011;11820;48.738;9.092;2023-04-03T06:58:47;2.73;;;2.10;;
23302;SDS011;11820;48.738;9.092;2023-04-03T07:01:13;4.93;;;2.50;;
23302;SDS011;11820;48.738;9.092;2023-04-03T07:03:40;2.70;;;2.27;;
23302;SDS011;11820;48.738;9.092;2023-04-03T07:06:06;3.47;;;2.23;;
23302;SDS011;11820;48.738;9.092;2023-04-03T07:08:32;3.53;;;2.17;;
23302;SDS011;11820;48.738;9.092;2023-04-03T07:10:58;3.00;;;2.07;;
23302;SDS011;11820;48.738;9.092;2023-04-03T07:13:24;4.43;;;2.43;;
23302;SDS011;11820;48.738;9.092;2023-04-03T07:15:50;2.23;;;2.03;;
23302;SDS011;11820;48.738;9.092;2023-04-03T07:18:15;5.37;;;2.13;;
23302;SDS011;11820;48.738;9.092;2023-04-03T07:20:42;4.87;;;2.20;;
23302;SDS011;11820;48.738;9.092;2023-04-03T07:23:08;3.43;;;2.10;;
23302;SDS011;11820;48.738;9.092;2023-04-03T07:25:33;2.97;;;2.13;;
23302;SDS011;11820;48.738;9.092;2023-04-03T07:27:59;2.87;;;2.40;;
23302;SDS011;11820;48.738;9.092;2023-04-03T07:30:24;4.27;;;2.87;;
23302;SDS011;11820;48.738;9.092;2023-04-03T07:32:50;4.30;;;2.60;;
23302;SDS011;11820;48.738;9.092;2023-04-03T07:35:16;3.93;;;2.30;;
23302;SDS011;11820;48.738;9.092;2023-04-03T07:37:42;2.83;;;2.10;;
23302;SDS011;11820;48.738;9.092;2023-04-03T07:40:07;3.40;;;2.10;;
23302;SDS011;11820;48.738;9.092;2023-04-03T07:42:33;3.37;;;2.47;;
23302;SDS011;11820;48.738;9.092;2023-04-03T07:44:59;3.00;;;2.10;;
23302;SDS011;11820;48.738;9.092;2023-04-03T07:47:25;7.77;;;3.53;;
23302;SDS011;11820;48.738;9.092;2023-04-03T07:49:52;3.88;;;2.85;;
23302;SDS011;11820;48.738;9.092;2023-04-03T07:52:17;2.63;;;2.27;;
23302;SDS011;11820;48.738;9.092;2023-04-03T07:54:42;3.80;;;2.30;;
23302;SDS011;11820;48.738;9.092;2023-04-03T07:57:08;4.07;;;2.50;;
23302;SDS011;11820;48.738;9.092;2023-04-03T07:59:33;4.70;;;2.27;;
23302;SDS011;11820;48.738;9.092;2023-04-03T08:01:58;3.53;;;2.60;;
23302;SDS011;11820;48.738;9.092;2023-04-03T08:04:24;3.40;;;2.40;;
23302;SDS011;11820;48.738;9.092;2023-04-03T08:06:51;5.00;;;2.20;;
23302;SDS011;11820;48.738;9.092;2023-04-03T08:09:16;2.77;;;2.50;;
23302;SDS011;11820;48.738;9.092;2023-04-03T08:11:43;3.13;;;2.40;;
23302;SDS011;11820;48.738;9.092;2023-04-03T08:14:09;3.60;;;2.40;;
23302;SDS011;11820;48.738;9.092;2023-04-03T08:16:40;2.37;;;2.03;;
23302;SDS011;11820;48.738;9.092;2023-04-03T08:19:05;2.67;;;2.17;;
23302;SDS011;11820;48.738;9.092;2023-04-03T08:21:32;3.37;;;2.70;;
23302;SDS011;11820;48.738;9.092;2023-04-03T08:23:57;6.97;;;2.43;;
23302;SDS011;11820;48.738;9.092;2023-04-03T08:26:22;3.80;;;2.23;;
23302;SDS011;11820;48.738;9.092;2023-04-03T08:28:48;3.73;;;2.40;;
23302;SDS011;11820;48.738;9.092;2023-04-03T08:31:15;5.47;;;2.37;;
23302;SDS011;11820;48.738;9.092;2023-04-03T08:33:43;3.45;;;2.60;;
23302;SDS011;11820;48.738;9.092;2023-04-03T08:36:20;2.37;;;1.90;;
23302;SDS011;11820;48.738;9.092;2023-04-03T08:38:48;3.47;;;2.40;;
23302;SDS011;11820;48.738;9.092;2023-04-03T08:41:16;2.60;;;2.40;;
23302;SDS011;11820;48.738;9.092;2023-04-03T08:46:49;3.03;;;2.60;;
23302;SDS011;11820;48.738;9.092;2023-04-03T08:49:31;2.50;;;2.30;;
23302;SDS011;11820;48.738;9.092;2023-04-03T08:52:01;2.60;;;2.40;;
23302;SDS011;11820;48.738;9.092;2023-04-03T08:54:32;5.67;;;2.70;;
23302;SDS011;11820;48.738;9.092;2023-04-03T08:57:00;4.33;;;2.73;;
23302;SDS011;11820;48.738;9.092;2023-04-03T08:59:30;3.20;;;2.40;;
23302;SDS011;11820;48.738;9.092;2023-04-03T09:01:59;7.00;;;3.17;;
23302;SDS011;11820;48.738;9.092;2023-04-03T09:04:31;2.47;;;2.27;;
23302;SDS011;11820;48.738;9.092;2023-04-03T09:07:02;3.93;;;2.47;;
23302;SDS011;11820;48.738;9.092;2023-04-03T09:09:36;4.00;;;2.60;;
23302;SDS011;11820;48.738;9.092;2023-04-03T09:12:15;3.67;;;2.37;;
23302;SDS011;11820;48.738;9.092;2023-04-03T09:22:38;3.73;;;2.57;;
23302;SDS011;11820;48.738;9.092;2023-04-03T09:25:15;6.60;;;2.80;;
23302;SDS011;11820;48.738;9.092;2023-04-03T09:27:44;4.23;;;2.57;;
23302;SDS011;11820;48.738;9.092;2023-04-03T09:30:23;6.43;;;2.30;;
23302;SDS011;11820;48.738;9.092;2023-04-03T09:32:51;4.13;;;2.20;;
23302;SDS011;11820;48.738;9.092;2023-04-03T09:35:28;5.50;;;2.20;;
23302;SDS011;11820;48.738;9.092;2023-04-03T09:40:42;4.47;;;2.20;;
23302;SDS011;11820;48.738;9.092;2023-04-03T09:45:42;3.67;;;1.93;;
23302;SDS011;11820;48.738;9.092;2023-04-03T09:53:37;7.73;;;2.80;;
23302;SDS011;11820;48.738;9.092;2023-04-03T09:58:46;5.90;;;2.57;;
23302;SDS011;11820;48.738;9.092;2023-04-03T10:01:32;6.80;;;2.57;;
23302;SDS011;11820;48.738;9.092;2023-04-03T10:04:06;4.20;;;2.13;;
23302;SDS011;11820;48.738;9.092;2023-04-03T10:06:39;3.50;;;2.10;;
23302;SDS011;11820;48.738;9.092;2023-04-03T10:14:54;2.60;;;2.03;;
23302;SDS011;11820;48.738;9.092;2023-04-03T10:17:36;4.97;;;2.17;;
23302;SDS011;11820;48.738;9.092;2023-04-03T10:25:51;3.70;;;2.00;;
23302;SDS011;11820;48.738;9.092;2023-04-03T10:28:31;5.53;;;1.97;;
23302;SDS011;11820;48.738;9.092;2023-04-03T10:31:06;3.47;;;2.10;;
23302;SDS011;11820;48.738;9.092;2023-04-03T10:39:05;3.80;;;2.10;;
23302;SDS011;11820;48.738;9.092;2023-04-03T10:47:09;3.03;;;1.90;;
23302;SDS011;11820;48.738;9.092;2023-04-03T10:49:51;4.60;;;1.90;;
23302;SDS011;11820;48.738;9.092;2023-04-03T10:55:06;3.00;;;1.80;;
23302;SDS011;11820;48.738;9.092;2023-04-03T10:57:43;2.77;;;1.70;;
23302;SDS011;11820;48.738;9.092;2023-04-03T11:00:14;3.53;;;1.60;;
23302;SDS011;11820;48.738;9.092;2023-04-03T11:02:54;4.60;;;2.20;;
23302;SDS011;11820;48.738;9.092;2023-04-03T11:05:45;5.07;;;2.80;;
23302;SDS011;11820;48.738;9.092;2023-04-03T11:08:19;2.13;;;1.90;;
23302;SDS011;11820;48.738;9.092;2023-04-03T11:10:51;2.43;;;1.97;;
23302;SDS011;11820;48.738;9.092;2023-04-03T11:13:23;3.47;;;2.07;;
23302;SDS011;11820;48.738;9.092;2023-04-03T11:15:53;3.77;;;2.27;;
23302;SDS011;11820;48.738;9.092;2023-04-03T11:18:26;2.93;;;2.13;;
23302;SDS011;11820;48.738;9.092;2023-04-03T11:21:12;2.30;;;2.10;;
23302;SDS011;11820;48.738;9.092;2023-04-03T11:23:42;4.57;;;2.10;;
23302;SDS011;11820;48.738;9.092;2023-04-03T11:26:14;3.03;;;1.73;;
23302;SDS011;11820;48.738;9.092;2023-04-03T11:28:42;2.63;;;1.40;;
23302;SDS011;11820;48.738;9.092;2023-04-03T11:32:13;3.47;;;2.00;;
23302;SDS011;11820;48.738;9.092;2023-04-03T11:34:34;4.83;;;2.23;;
23302;SDS011;11820;48.738;9.092;2023-04-03T11:37:04;2.37;;;1.57;;
23302;SDS011;11820;48.738;9.092;2023-04-03T11:39:36;3.27;;;1.57;;
23302;SDS011;11820;48.738;9.092;2023-04-03T11:42:16;4.33;;;1.70;;
23302;SDS011;11820;48.738;9.092;2023-04-03T11:44:51;3.90;;;1.83;;
23302;SDS011;11820;48.738;9.092;2023-04-03T11:47:57;2.70;;;1.83;;
23302;SDS011;11820;48.738;9.092;2023-04-03T11:50:40;3.53;;;1.63;;
23302;SDS011;11820;48.738;9.092;2023-04-03T12:05:50;6.23;;;1.33;;
23302;SDS011;11820;48.738;9.092;2023-04-03T12:08:26;2.50;;;1.60;;
23302;SDS011;11820;48.738;9.092;2023-04-03T12:13:33;5.03;;;2.03;;
23302;SDS011;11820;48.738;9.092;2023-04-03T12:15:59;3.00;;;1.73;;
23302;SDS011;11820;48.738;9.092;2023-04-03T12:18:31;4.53;;;1.80;;
23302;SDS011;11820;48.738;9.092;2023-04-03T12:29:21;2.50;;;1.63;;
23302;SDS011;11820;48.738;9.092;2023-04-03T12:32:08;4.50;;;1.60;;
23302;SDS011;11820;48.738;9.092;2023-04-03T12:34:42;4.30;;;1.83;;
23302;SDS011;11820;48.738;9.092;2023-04-03T12:37:16;3.00;;;1.60;;
23302;SDS011;11820;48.738;9.092;2023-04-03T12:40:05;3.73;;;1.67;;
23302;SDS011;11820;48.738;9.092;2023-04-03T12:45:22;4.20;;;1.90;;
23302;SDS011;11820;48.738;9.092;2023-04-03T12:47:49;2.43;;;1.40;;
23302;SDS011;11820;48.738;9.092;2023-04-03T12:50:24;3.93;;;1.73;;
23302;SDS011;11820;48.738;9.092;2023-04-03T12:53:05;3.93;;;1.70;;
23302;SDS011;11820;48.738;9.092;2023-04-03T12:55:46;7.20;;;1.67;;
23302;SDS011;11820;48.738;9.092;2023-04-03T12:58:15;3.53;;;1.70;;
23302;SDS011;11820;48.738;9.092;2023-04-03T13:00:45;1.90;;;1.70;;
23302;SDS011;11820;48.738;9.092;2023-04-03T13:03:22;3.73;;;2.23;;
23302;SDS011;11820;48.738;9.092;2023-04-03T13:05:51;2.57;;;1.67;;
23302;SDS011;11820;48.738;9.092;2023-04-03T13:08:19;2.40;;;1.43;;
23302;SDS011;11820;48.738;9.092;2023-04-03T13:11:07;1.90;;;1.47;;
23302;SDS011;11820;48.738;9.092;2023-04-03T13:13:34;4.57;;;2.00;;
23302;SDS011;11820;48.738;9.092;2023-04-03T13:16:05;2.93;;;1.50;;
23302;SDS011;11820;48.738;9.092;2023-04-03T13:18:34;5.80;;;1.63;;
23302;SDS011;11820;48.738;9.092;2023-04-03T13:21:02;2.37;;;1.43;;
23302;SDS011;11820;48.738;9.092;2023-04-03T13:23:31;2.50;;;1.47;;
23302;SDS011;11820;48.738;9.092;2023-04-03T13:25:58;2.43;;;1.60;;
23302;SDS011;11820;48.738;9.092;2023-04-03T13:28:28;3.00;;;1.80;;
23302;SDS011;11820;48.738;9.092;2023-04-03T13:30:56;4.10;;;1.70;;
23302;SDS011;11820;48.738;9.092;2023-04-03T13:33:24;3.40;;;1.47;;
23302;SDS011;11820;48.738;9.092;2023-04-03T13:36:35;2.55;;;1.65;;
23302;SDS011;11820;48.738;9.092;2023-04-03T13:38:58;5.80;;;2.00;;
23302;SDS011;11820;48.738;9.092;2023-04-03T13:41:40;3.90;;;2.00;;
23302;SDS011;11820;48.738;9.092;2023-04-03T13:46:55;4.50;;;1.40;;
23302;SDS011;11820;48.738;9.092;2023-04-03T13:51:54;2.63;;;1.60;;
23302;SDS011;11820;48.738;9.092;2023-04-03T13:54:24;4.07;;;1.90;;
23302;SDS011;11820;48.738;9.092;2023-04-03T13:56:56;2.20;;;1.60;;
23302;SDS011;11820;48.738;9.092;2023-04-03T13:59:24;4.03;;;2.07;;
23302;SDS011;11820;48.738;9.092;2023-04-03T14:07:04;2.20;;;1.60;;
23302;SDS011;11820;48.738;9.092;2023-04-03T14:09:30;2.53;;;1.23;;
23302;SDS011;11820;48.738;9.092;2023-04-03T14:12:00;3.00;;;1.47;;
23302;SDS011;11820;48.738;9.092;2023-04-03T14:14:31;1.57;;;1.47;;
23302;SDS011;11820;48.738;9.092;2023-04-03T14:16:58;4.87;;;1.80;;
23302;SDS011;11820;48.738;9.092;2023-04-03T14:19:26;3.17;;;1.80;;
23302;SDS011;11820;48.738;9.092;2023-04-03T14:21:54;3.80;;;1.80;;
23302;SDS011;11820;48.738;9.092;2023-04-03T14:24:21;3.27;;;1.73;;
23302;SDS011;11820;48.738;9.092;2023-04-03T14:26:47;2.03;;;1.70;;
23302;SDS011;11820;48.738;9.092;2023-04-03T14:29:13;2.07;;;1.63;;
23302;SDS011;11820;48.738;9.092;2023-04-03T14:31:40;3.23;;;1.90;;
23302;SDS011;11820;48.738;9.092;2023-04-03T14:34:07;4.03;;;1.50;;
23302;SDS011;11820;48.738;9.092;2023-04-03T14:36:32;7.97;;;2.07;;
23302;SDS011;11820;48.738;9.092;2023-04-03T14:38:59;4.60;;;2.50;;
23302;SDS011;11820;48.738;9.092;2023-04-03T14:41:25;2.20;;;1.70;;
23302;SDS011;11820;48.738;9.092;2023-04-03T14:43:51;4.50;;;1.67;;
23302;SDS011;11820;48.738;9.092;2023-04-03T14:46:18;2.83;;;1.60;;
23302;SDS011;11820;48.738;9.092;2023-04-03T14:48:49;2.37;;;1.80;;
23302;SDS011;11820;48.738;9.092;2023-04-03T14:51:14;2.17;;;1.87;;
23302;SDS011;11820;48.738;9.092;2023-04-03T14:53:40;2.43;;;2.00;;
23302;SDS011;11820;48.738;9.092;2023-04-03T14:56:26;2.92;;;2.03;;
23302;SDS011;11820;48.738;9.092;2023-04-03T14:59:02;3.00;;;1.60;;
23302;SDS011;11820;48.738;9.092;2023-04-03T15:01:33;3.47;;;1.90;;
23302;SDS011;11820;48.738;9.092;2023-04-03T15:03:59;2.10;;;1.50;;
23302;SDS011;11820;48.738;9.092;2023-04-03T15:06:24;3.60;;;1.30;;
23302;SDS011;11820;48.738;9.092;2023-04-03T15:08:50;2.50;;;1.40;;
23302;SDS011;11820;48.738;9.092;2023-04-03T15:11:15;6.40;;;2.57;;
23302;SDS011;11820;48.738;9.092;2023-04-03T15:13:41;5.37;;;1.97;;
23302;SDS011;11820;48.738;9.092;2023-04-03T15:16:11;3.00;;;2.10;;
23302;SDS011;11820;48.738;9.092;2023-04-03T15:18:40;2.03;;;1.43;;
23302;SDS011;11820;48.738;9.092;2023-04-03T15:21:05;2.90;;;1.80;;
23302;SDS011;11820;48.738;9.092;2023-04-03T15:23:31;3.23;;;1.60;;
23302;SDS011;11820;48.738;9.092;2023-04-03T15:25:57;4.50;;;1.50;;
23302;SDS011;11820;48.738;9.092;2023-04-03T15:28:23;3.83;;;1.63;;
23302;SDS011;11820;48.738;9.092;2023-04-03T15:31:02;3.30;;;1.87;;
23302;SDS011;11820;48.738;9.092;2023-04-03T15:33:29;3.87;;;2.00;;
23302;SDS011;11820;48.738;9.092;2023-04-03T15:35:55;3.13;;;1.70;;
23302;SDS011;11820;48.738;9.092;2023-04-03T15:38:20;2.87;;;1.70;;
23302;SDS011;11820;48.738;9.092;2023-04-03T15:40:46;1.67;;;1.40;;
23302;SDS011;11820;48.738;9.092;2023-04-03T15:43:12;1.70;;;1.50;;
23302;SDS011;11820;48.738;9.092;2023-04-03T15:45:37;3.27;;;1.60;;
23302;SDS011;11820;48.738;9.092;2023-04-03T15:48:03;3.83;;;1.80;;
23302;SDS011;11820;48.738;9.092;2023-04-03T15:50:29;2.77;;;1.50;;
23302;SDS011;11820;48.738;9.092;2023-04-03T15:52:56;1.87;;;1.30;;
23302;SDS011;11820;48.738;9.092;2023-04-03T15:55:24;2.00;;;1.40;;
23302;SDS011;11820;48.738;9.092;2023-04-03T15:57:51;4.90;;;1.70;;
23302;SDS011;11820;48.738;9.092;2023-04-03T16:00:17;2.80;;;1.20;;
23302;SDS011;11820;48.738;9.092;2023-04-03T16:02:44;3.20;;;1.93;;
23302;SDS011;11820;48.738;9.092;2023-04-03T16:05:11;3.00;;;1.67;;
23302;SDS011;11820;48.738;9.092;2023-04-03T16:07:40;2.90;;;1.40;;
23302;SDS011;11820;48.738;9.092;2023-04-03T16:10:06;4.83;;;1.60;;
23302;SDS011;11820;48.738;9.092;2023-04-03T16:12:32;2.93;;;1.47;;
23302;SDS011;11820;48.738;9.092;2023-04-03T16:14:57;2.57;;;1.67;;
23302;SDS011;11820;48.738;9.092;2023-04-03T16:17:22;2.87;;;1.70;;
23302;SDS011;11820;48.738;9.092;2023-04-03T16:19:48;3.87;;;2.00;;
23302;SDS011;11820;48.738;9.092;2023-04-03T16:22:13;2.87;;;1.60;;
23302;SDS011;11820;48.738;9.092;2023-04-03T16:24:39;2.10;;;1.40;;
23302;SDS011;11820;48.738;9.092;2023-04-03T16:27:04;1.83;;;1.57;;
23302;SDS011;11820;48.738;9.092;2023-04-03T16:29:30;2.70;;;1.50;;